Time;durP1;ratioP1;P1;durP2;ratioP2;P2;SDS_P1;SDS_P2;PMS_P1;PMS_P2;Temp;Humidity;BMP_temperature;BMP_pressure;BME280_temperature;BME280_humidity;BME280_pressure;Samples;Min_cycle;Max_cycle;Signal;HPM_P1;HPM_P2
2021/07/01 00:01:08;;;;;;;5.53;3.58;;;;;;;16.00;71.76;99569.36;2121260;82;21097;-66
2021/07/01 00:04:10;;;;;;;9.35;4.00;;;;;;;15.95;71.78;99565.17;2119094;82;21103;-67
2021/07/01 00:07:12;;;;;;;10.40;4.62;;;;;;;15.94;72.15;99563.55;2118400;82;21117;-67
2021/07/01 00:10:21;;;;;;;8.53;4.05;;;;;;;15.88;72.16;99567.90;2115917;82;21456;-67
2021/07/01 00:13:23;;;;;;;7.03;4.00;;;;;;;15.83;72.29;99566.37;2115906;82;21032;-67
2021/07/01 00:16:25;;;;;;;5.53;3.77;;;;;;;15.82;72.18;99567.91;2118293;82;21116;-69
2021/07/01 00:19:26;;;;;;;7.05;3.75;;;;;;;15.76;72.01;99576.80;2118808;82;21505;-67
2021/07/01 00:22:30;;;;;;;16.15;4.17;;;;;;;15.74;72.11;99570.34;2113635;82;21004;-66
2021/07/01 00:25:33;;;;;;;6.60;4.25;;;;;;;15.71;71.96;99565.91;2116697;82;21049;-67
2021/07/01 00:28:37;;;;;;;5.30;3.90;;;;;;;15.67;72.23;99573.52;2117755;81;21069;-67
2021/07/01 00:31:39;;;;;;;5.90;3.87;;;;;;;15.65;72.50;99572.91;2110792;82;21140;-68
2021/07/01 00:34:42;;;;;;;8.65;4.37;;;;;;;15.62;72.60;99574.67;2053985;85;22883;-68
2021/07/01 00:37:43;;;;;;;7.87;4.28;;;;;;;15.61;72.54;99571.19;2089940;83;21009;-68
2021/07/01 00:40:45;;;;;;;18.25;4.58;;;;;;;15.59;72.54;99559.87;2053165;85;20979;-68
2021/07/01 00:43:47;;;;;;;5.53;4.45;;;;;;;15.57;72.46;99555.77;2088351;83;22371;-70
2021/07/01 00:46:49;;;;;;;8.53;4.53;;;;;;;15.55;72.79;99560.53;2048809;85;21073;-66
2021/07/01 00:49:53;;;;;;;6.25;4.20;;;;;;;15.57;72.96;99563.30;2075980;84;21020;-68
2021/07/01 00:52:55;;;;;;;7.33;4.50;;;;;;;15.57;72.97;99552.60;2076556;84;21071;-67
2021/07/01 00:55:58;;;;;;;4.28;3.80;;;;;;;15.59;73.10;99549.70;2073454;84;21084;-67
2021/07/01 00:59:00;;;;;;;12.28;3.75;;;;;;;15.62;73.33;99535.37;2076357;84;21023;-67
2021/07/01 01:02:02;;;;;;;7.65;3.80;;;;;;;15.63;73.26;99536.22;2076194;84;21187;-68
2021/07/01 01:05:07;;;;;;;8.48;4.85;;;;;;;15.62;73.24;99534.03;2074799;84;21038;-68
2021/07/01 01:08:09;;;;;;;7.03;4.78;;;;;;;15.60;73.49;99527.29;2075969;84;21090;-70
2021/07/01 01:11:11;;;;;;;9.50;5.20;;;;;;;15.61;73.67;99528.39;2079088;84;21124;-67
2021/07/01 01:14:20;;;;;;;12.13;5.40;;;;;;;15.66;73.68;99531.25;2077134;84;21195;-68
2021/07/01 01:17:23;;;;;;;7.53;5.15;;;;;;;15.69;73.75;99526.84;2075963;84;21814;-67
2021/07/01 01:20:25;;;;;;;8.63;5.20;;;;;;;15.71;73.85;99528.47;2078191;84;21526;-72
2021/07/01 01:23:28;;;;;;;6.72;4.72;;;;;;;15.72;73.97;99524.78;2074809;84;20983;-70
2021/07/01 01:26:32;;;;;;;10.55;5.72;;;;;;;15.76;74.20;99517.95;2077975;84;21529;-67
2021/07/01 01:29:36;;;;;;;8.00;5.03;;;;;;;15.77;74.32;99512.90;2074474;84;21017;-69
2021/07/01 01:32:39;;;;;;;7.47;4.70;;;;;;;15.77;74.34;99517.76;2075062;83;21017;-68
2021/07/01 01:35:42;;;;;;;12.00;4.58;;;;;;;15.77;74.41;99516.42;2034871;85;21058;-66
2021/07/01 01:38:43;;;;;;;16.10;4.55;;;;;;;15.76;74.41;99505.92;2075782;84;21025;-68
2021/07/01 01:41:50;;;;;;;10.65;4.92;;;;;;;15.78;74.46;99499.84;2093180;83;21070;-73
2021/07/01 01:44:51;;;;;;;11.85;5.03;;;;;;;15.76;74.53;99495.22;2099551;83;21336;-67
2021/07/01 01:47:53;;;;;;;9.95;4.37;;;;;;;15.71;74.60;99500.39;2062472;84;20999;-67
2021/07/01 01:50:55;;;;;;;8.00;5.25;;;;;;;15.66;74.44;99498.34;2096542;83;21616;-67
2021/07/01 01:53:58;;;;;;;7.00;5.03;;;;;;;15.69;74.79;99505.97;2102801;83;21079;-68
2021/07/01 01:57:03;;;;;;;9.75;5.75;;;;;;;15.69;74.83;99508.13;2098849;84;21113;-72
2021/07/01 02:00:12;;;;;;;10.03;5.43;;;;;;;15.73;74.91;99507.69;2048904;83;21009;-67
2021/07/01 02:03:32;;;;;;;10.38;5.80;;;;;;;15.74;74.91;99510.66;2102376;83;21095;-67
2021/07/01 02:06:41;;;;;;;10.25;5.42;;;;;;;15.70;75.14;99510.27;2100883;83;21017;-67
2021/07/01 02:09:43;;;;;;;8.38;5.65;;;;;;;15.70;75.45;99508.94;2104404;83;21485;-67
2021/07/01 02:12:45;;;;;;;7.85;5.72;;;;;;;15.72;75.67;99506.06;2099063;83;21746;-68
2021/07/01 02:15:47;;;;;;;10.55;6.33;;;;;;;15.78;75.77;99506.53;2103697;83;21057;-67
2021/07/01 02:18:51;;;;;;;10.23;5.35;;;;;;;15.81;75.76;99510.92;2099279;83;21016;-69
2021/07/01 02:21:56;;;;;;;10.55;5.25;;;;;;;15.84;75.71;99509.67;2097926;83;21096;-67
2021/07/01 02:25:02;;;;;;;10.00;5.55;;;;;;;15.85;75.88;99518.84;2099578;83;21028;-72
2021/07/01 02:28:05;;;;;;;11.57;5.20;;;;;;;15.86;75.81;99517.80;2099079;83;21396;-67
2021/07/01 02:31:07;;;;;;;6.17;4.78;;;;;;;15.88;75.86;99526.44;2101492;82;21047;-67
2021/07/01 02:34:11;;;;;;;11.50;5.25;;;;;;;15.87;75.85;99524.77;2091364;83;21004;-68
2021/07/01 02:37:36;;;;;;;10.38;5.40;;;;;;;15.91;75.86;99535.36;2101927;83;21512;-67
2021/07/01 02:40:43;;;;;;;7.83;4.90;;;;;;;15.96;75.88;99533.36;2102820;82;21652;-67
2021/07/01 02:43:46;;;;;;;7.75;4.50;;;;;;;15.98;75.90;99535.83;2094456;83;21107;-67
2021/07/01 02:46:53;;;;;;;4.83;4.42;;;;;;;16.00;75.99;99547.14;2057905;83;21039;-67
2021/07/01 02:49:56;;;;;;;7.33;4.08;;;;;;;15.99;75.99;99549.50;2095265;82;21057;-67
2021/07/01 02:53:00;;;;;;;5.65;4.58;;;;;;;15.99;76.11;99550.31;2099415;83;21037;-68
2021/07/01 02:56:05;;;;;;;7.60;4.45;;;;;;;15.96;76.11;99545.39;2098010;83;21084;-67
2021/07/01 02:59:16;;;;;;;11.38;4.42;;;;;;;15.98;76.09;99543.86;2100887;83;21054;-67
2021/07/01 03:02:38;;;;;;;8.53;4.65;;;;;;;16.01;76.10;99547.44;2094184;83;21057;-68
2021/07/01 03:05:47;;;;;;;7.45;4.37;;;;;;;16.02;76.12;99552.59;2077474;83;21541;-67
2021/07/01 03:08:49;;;;;;;9.53;4.10;;;;;;;16.02;76.09;99552.59;2098296;83;21062;-68
2021/07/01 03:11:52;;;;;;;11.85;4.00;;;;;;;16.05;76.11;99545.46;2096721;83;21048;-67
2021/07/01 03:14:54;;;;;;;7.12;4.20;;;;;;;16.09;76.11;99545.31;2099759;83;21084;-69
2021/07/01 03:17:56;;;;;;;5.90;4.12;;;;;;;16.09;76.16;99549.86;2103121;83;21072;-67
2021/07/01 03:21:00;;;;;;;6.92;4.17;;;;;;;16.09;76.19;99552.01;2097755;83;21019;-67
2021/07/01 03:24:06;;;;;;;5.87;4.30;;;;;;;16.14;76.28;99557.53;2093429;83;21040;-73
2021/07/01 03:27:09;;;;;;;7.55;4.03;;;;;;;16.19;76.25;99564.08;2086739;83;21085;-67
2021/07/01 03:30:12;;;;;;;5.60;3.67;;;;;;;16.20;76.25;99557.71;2097459;83;21140;-69
2021/07/01 03:33:14;;;;;;;6.30;3.50;;;;;;;16.19;76.13;99568.94;2097384;83;21192;-72
2021/07/01 03:36:17;;;;;;;4.53;3.95;;;;;;;16.17;76.06;99558.15;2094349;83;20993;-67
2021/07/01 03:39:30;;;;;;;6.75;3.42;;;;;;;16.20;76.09;99556.38;2100645;83;21049;-67
2021/07/01 03:42:33;;;;;;;6.42;3.80;;;;;;;16.18;75.96;99551.22;2102293;83;21013;-67
2021/07/01 03:45:35;;;;;;;5.12;3.58;;;;;;;16.11;76.05;99547.27;2098805;83;21151;-68
2021/07/01 03:48:37;;;;;;;4.15;3.75;;;;;;;16.12;76.11;99549.42;2096549;83;21065;-67
2021/07/01 03:51:57;;;;;;;6.90;3.70;;;;;;;16.14;76.15;99546.83;2093564;83;21114;-68
2021/07/01 03:55:12;;;;;;;5.28;3.37;;;;;;;16.19;76.29;99550.20;2096682;83;21082;-69
2021/07/01 03:58:13;;;;;;;4.58;3.33;;;;;;;16.22;76.41;99552.94;2098803;83;21064;-68
2021/07/01 04:01:16;;;;;;;5.78;3.33;;;;;;;16.26;76.42;99554.98;2104648;82;21675;-68
2021/07/01 04:04:18;;;;;;;10.13;4.55;;;;;;;16.29;76.32;99554.53;2100765;83;21081;-71
2021/07/01 04:07:20;;;;;;;7.35;3.47;;;;;;;16.33;76.31;99554.91;2094698;83;21533;-67
2021/07/01 04:10:22;;;;;;;4.10;3.60;;;;;;;16.36;76.38;99557.19;2093933;83;21175;-68
2021/07/01 04:13:24;;;;;;;6.72;3.40;;;;;;;16.40;76.20;99560.23;2098377;83;21468;-68
2021/07/01 04:16:46;;;;;;;6.87;3.77;;;;;;;16.38;76.00;99562.30;2099844;83;21042;-69
2021/07/01 04:20:08;;;;;;;3.98;3.58;;;;;;;16.42;76.12;99562.19;2101665;83;21496;-67
2021/07/01 04:23:28;;;;;;;7.12;4.15;;;;;;;16.51;76.17;99565.70;2096496;83;21734;-66
2021/07/01 04:26:48;;;;;;;4.55;3.40;;;;;;;16.73;76.24;99569.33;2116523;82;21113;-70
2021/07/01 04:29:53;;;;;;;5.55;4.40;;;;;;;16.88;76.27;99571.69;2113703;82;21017;-69
2021/07/01 04:32:56;;;;;;;7.97;4.03;;;;;;;16.94;76.08;99586.88;2075882;83;21046;-66
2021/07/01 04:35:58;;;;;;;4.83;3.62;;;;;;;16.93;76.07;99586.59;2040416;85;21014;-67
2021/07/01 04:39:01;;;;;;;7.05;3.98;;;;;;;16.91;76.10;99592.16;2042299;85;21618;-69
2021/07/01 04:42:07;;;;;;;5.47;3.80;;;;;;;16.93;76.28;99596.78;2033598;85;21538;-66
2021/07/01 04:45:12;;;;;;;5.03;3.80;;;;;;;17.00;76.32;99589.48;2042363;85;21125;-67
2021/07/01 04:48:14;;;;;;;7.20;3.80;;;;;;;17.15;76.50;99599.87;2042504;85;21066;-68
2021/07/01 04:51:16;;;;;;;7.12;3.65;;;;;;;17.25;76.35;99598.81;2036303;85;21051;-67
2021/07/01 04:54:38;;;;;;;4.75;3.40;;;;;;;17.34;76.28;99595.84;2043572;85;22547;-68
2021/07/01 04:57:41;;;;;;;8.33;3.70;;;;;;;17.42;76.24;99601.72;1991974;85;21153;-68
2021/07/01 05:00:45;;;;;;;6.20;3.52;;;;;;;17.52;76.06;99598.53;2038531;85;22531;-67
2021/07/01 05:04:07;;;;;;;10.40;3.25;;;;;;;17.64;75.93;99591.88;2037085;85;21095;-71
2021/07/01 05:07:09;;;;;;;5.87;3.05;;;;;;;17.87;75.94;99594.69;2031230;85;21070;-67
2021/07/01 05:10:18;;;;;;;6.70;2.70;;;;;;;18.08;75.56;99590.70;2036612;85;21061;-70
2021/07/01 05:13:22;;;;;;;7.85;3.10;;;;;;;18.23;75.40;99590.27;2039117;85;21135;-67
2021/07/01 05:16:24;;;;;;;4.80;2.58;;;;;;;18.28;74.99;99598.46;2039604;85;22748;-68
2021/07/01 05:19:25;;;;;;;8.45;3.42;;;;;;;18.31;74.93;99599.88;2038676;85;21106;-71
2021/07/01 05:22:40;;;;;;;5.30;2.95;;;;;;;18.26;74.86;99603.23;2037664;85;21522;-67
2021/07/01 05:25:59;;;;;;;4.85;2.80;;;;;;;18.17;74.72;99608.64;2043475;85;21054;-71
2021/07/01 05:29:12;;;;;;;4.62;2.67;;;;;;;18.05;74.70;99610.48;2023070;85;21099;-65
2021/07/01 05:32:21;;;;;;;5.12;3.00;;;;;;;17.97;74.73;99609.45;2030398;83;21063;-67
2021/07/01 05:35:42;;;;;;;4.83;2.12;;;;;;;17.87;74.71;99616.16;2095303;83;21044;-66
2021/07/01 05:38:43;;;;;;;4.55;2.50;;;;;;;17.78;74.67;99619.36;2095417;83;21022;-66
2021/07/01 05:41:47;;;;;;;3.67;2.47;;;;;;;17.64;74.80;99624.88;2089527;83;20978;-66
2021/07/01 05:44:48;;;;;;;3.40;2.25;;;;;;;17.53;75.07;99626.98;2090741;83;21507;-68
2021/07/01 05:47:53;;;;;;;4.10;2.30;;;;;;;17.48;75.06;99630.84;2090041;83;21568;-67
2021/07/01 05:51:03;;;;;;;1.80;1.70;;;;;;;17.45;75.14;99622.72;2090953;83;21056;-68
2021/07/01 05:54:26;;;;;;;4.85;2.05;;;;;;;17.39;75.21;99626.30;2091173;82;21082;-68
2021/07/01 05:57:23;;;;;;;2.62;1.77;;;;;;;17.33;75.23;99627.20;2090518;83;21054;-68
2021/07/01 06:00:25;;;;;;;2.35;1.95;;;;;;;17.30;75.48;99628.98;2118656;82;21089;-67
2021/07/01 06:03:27;;;;;;;2.75;1.82;;;;;;;17.30;75.55;99624.16;2116191;82;21072;-67
2021/07/01 06:06:34;;;;;;;3.98;1.80;;;;;;;17.30;75.79;99622.81;2120607;80;21036;-67
2021/07/01 06:09:49;;;;;;;2.02;1.80;;;;;;;17.31;75.77;99634.64;2117655;81;21085;-68
2021/07/01 06:12:52;;;;;;;5.25;1.75;;;;;;;17.30;75.95;99638.38;2111885;82;21094;-68
2021/07/01 06:15:59;;;;;;;5.22;2.22;;;;;;;17.21;75.90;99643.73;2116793;82;21456;-71
2021/07/01 06:19:02;;;;;;;9.95;2.35;;;;;;;17.21;76.09;99641.05;2115060;82;21524;-68
2021/07/01 06:22:04;;;;;;;2.12;1.90;;;;;;;17.21;76.15;99635.16;2118670;82;20988;-68
2021/07/01 06:25:08;;;;;;;2.77;2.20;;;;;;;17.21;76.07;99637.84;2121758;82;21071;-68
2021/07/01 06:28:15;;;;;;;1.90;1.70;;;;;;;17.21;76.28;99639.71;2114098;82;21603;-67
2021/07/01 06:31:20;;;;;;;2.98;2.12;;;;;;;17.24;76.41;99645.97;2117467;82;21017;-67
2021/07/01 06:34:21;;;;;;;3.62;1.90;;;;;;;17.26;76.42;99653.28;2117373;82;21018;-68
2021/07/01 06:37:24;;;;;;;4.03;2.00;;;;;;;17.31;76.69;99649.39;2119440;82;21036;-70
2021/07/01 06:40:47;;;;;;;7.67;2.62;;;;;;;17.28;76.56;99646.34;2115761;82;21013;-67
2021/07/01 06:44:10;;;;;;;2.92;2.17;;;;;;;17.22;76.69;99650.72;2119909;82;21082;-67
2021/07/01 06:47:32;;;;;;;3.70;2.50;;;;;;;17.16;76.96;99651.61;2116229;82;21659;-72
2021/07/01 06:50:58;;;;;;;3.40;2.00;;;;;;;17.17;77.39;99650.56;2088453;83;21469;-68
2021/07/01 06:54:19;;;;;;;4.72;2.50;;;;;;;17.19;77.53;99647.15;2093220;84;21090;-68
2021/07/01 06:57:34;;;;;;;3.05;2.10;;;;;;;17.21;77.78;99640.52;2054530;84;21556;-67
2021/07/01 07:00:36;;;;;;;3.77;2.25;;;;;;;17.31;77.71;99644.02;2093335;83;21165;-68
2021/07/01 07:03:40;;;;;;;5.03;2.87;;;;;;;17.38;77.69;99650.15;2087138;83;21508;-68
2021/07/01 07:06:44;;;;;;;6.17;2.30;;;;;;;17.45;77.71;99650.06;2088086;83;21540;-70
2021/07/01 07:09:45;;;;;;;2.22;1.90;;;;;;;17.51;77.72;99645.67;2088921;83;21032;-68
2021/07/01 07:12:51;;;;;;;2.67;2.10;;;;;;;17.58;77.49;99643.22;2092428;83;21064;-69
2021/07/01 07:15:57;;;;;;;3.55;2.00;;;;;;;17.68;77.68;99651.58;2087872;83;21020;-71
2021/07/01 07:19:02;;;;;;;5.53;2.22;;;;;;;17.83;77.94;99645.03;2090571;83;21114;-70
2021/07/01 07:22:04;;;;;;;6.42;2.20;;;;;;;17.97;77.89;99643.81;2093841;83;21555;-71
2021/07/01 07:25:11;;;;;;;5.08;2.00;;;;;;;18.10;77.70;99645.48;2090890;83;21470;-70
2021/07/01 07:28:20;;;;;;;4.53;2.20;;;;;;;18.19;77.37;99648.17;2094308;83;21032;-67
2021/07/01 07:31:33;;;;;;;3.47;2.10;;;;;;;18.33;77.22;99653.65;2086830;83;21040;-69
2021/07/01 07:34:35;;;;;;;3.80;2.27;;;;;;;18.50;77.32;99646.25;2085760;83;21029;-70
2021/07/01 07:37:37;;;;;;;1.95;1.67;;;;;;;18.71;77.42;99641.70;2086483;84;21746;-67
2021/07/01 07:40:40;;;;;;;2.00;1.60;;;;;;;18.96;76.47;99638.83;2081961;83;21021;-67
2021/07/01 07:43:43;;;;;;;1.92;1.82;;;;;;;19.29;76.60;99640.12;2110680;82;21069;-68
2021/07/01 07:46:48;;;;;;;1.50;1.40;;;;;;;19.52;76.02;99636.58;2101297;83;20977;-68
2021/07/01 07:49:49;;;;;;;1.75;1.45;;;;;;;19.61;74.49;99639.71;2109014;82;21522;-68
2021/07/01 07:52:52;;;;;;;4.55;1.90;;;;;;;19.58;74.25;99636.16;2104085;82;21060;-68
2021/07/01 07:56:04;;;;;;;3.67;1.80;;;;;;;19.61;73.69;99643.22;2104673;82;21013;-67
2021/07/01 07:59:11;;;;;;;2.98;1.87;;;;;;;19.77;74.05;99647.61;2101506;82;22062;-72
2021/07/01 08:02:50;;;;;;;4.22;1.55;;;;;;;20.09;72.65;99649.30;2106554;82;21101;-68
2021/07/01 08:05:54;;;;;;;2.58;2.20;;;;;;;20.35;71.48;99646.54;2109940;82;21077;-67
2021/07/01 08:08:57;;;;;;;3.02;1.70;;;;;;;20.84;72.07;99640.13;2109327;82;21557;-68
2021/07/01 08:12:00;;;;;;;3.55;1.80;;;;;;;21.56;71.23;99640.63;2107489;82;21074;-66
2021/07/01 08:15:02;;;;;;;2.08;1.70;;;;;;;22.30;70.69;99640.16;2106965;82;21074;-71
2021/07/01 08:18:06;;;;;;;2.12;1.62;;;;;;;22.71;64.59;99634.29;2103357;82;20987;-66
2021/07/01 08:21:14;;;;;;;5.12;1.55;;;;;;;22.93;66.46;99635.55;2104659;82;21457;-66
2021/07/01 08:24:15;;;;;;;2.50;1.35;;;;;;;23.39;66.61;99635.84;2108809;82;21039;-68
2021/07/01 08:27:18;;;;;;;1.55;1.45;;;;;;;23.99;65.48;99629.61;2108745;82;21634;-67
2021/07/01 08:30:24;;;;;;;2.77;1.30;;;;;;;24.55;63.84;99641.92;2101658;82;21083;-67
2021/07/01 08:33:31;;;;;;;1.40;1.30;;;;;;;24.90;62.96;99637.59;2085058;83;21084;-66
2021/07/01 08:36:36;;;;;;;2.45;1.67;;;;;;;25.29;61.59;99628.32;2092974;83;21006;-68
2021/07/01 08:39:39;;;;;;;1.42;1.32;;;;;;;25.73;60.58;99620.81;2090311;83;21328;-66
2021/07/01 08:42:43;;;;;;;1.40;1.30;;;;;;;25.88;55.83;99614.53;2090434;82;21842;-71
2021/07/01 08:46:04;;;;;;;3.15;1.57;;;;;;;25.69;55.28;99618.39;2101576;83;21103;-67
2021/07/01 08:49:11;;;;;;;1.20;1.20;;;;;;;25.19;57.10;99615.57;2068337;83;21122;-68
2021/07/01 08:52:15;;;;;;;1.25;1.20;;;;;;;25.43;57.35;99611.71;2087932;82;21102;-66
2021/07/01 08:55:19;;;;;;;3.42;1.40;;;;;;;25.86;56.75;99612.08;2113404;82;21047;-69
2021/07/01 08:58:23;;;;;;;4.15;1.30;;;;;;;26.26;52.89;99611.56;2111364;83;21074;-68
2021/07/01 09:01:27;;;;;;;1.25;1.20;;;;;;;25.88;54.96;99601.75;2113457;82;21058;-72
2021/07/01 09:04:37;;;;;;;2.10;1.30;;;;;;;25.58;52.12;99596.44;2117155;82;21061;-69
2021/07/01 09:07:41;;;;;;;1.42;1.20;;;;;;;25.50;53.74;99605.42;2116764;82;21052;-68
2021/07/01 09:10:53;;;;;;;1.27;1.12;;;;;;;25.54;53.36;99596.72;2114192;82;21005;-72
2021/07/01 09:14:00;;;;;;;1.75;1.30;;;;;;;25.36;53.07;99593.53;2112096;83;20994;-69
2021/07/01 09:17:13;;;;;;;2.60;1.37;;;;;;;25.03;52.57;99602.56;2117610;82;20961;-70
2021/07/01 09:20:24;;;;;;;3.22;1.20;;;;;;;25.00;53.16;99597.70;2118311;82;21033;-67
2021/07/01 09:23:29;;;;;;;1.15;1.02;;;;;;;25.47;51.58;99605.17;2117170;82;20991;-66
2021/07/01 09:26:31;;;;;;;1.07;0.90;;;;;;;25.91;52.08;99595.75;2114306;83;21016;-66
2021/07/01 09:29:35;;;;;;;2.58;1.27;;;;;;;25.93;50.92;99601.73;2116954;82;21046;-66
2021/07/01 09:32:37;;;;;;;1.50;1.40;;;;;;;25.76;50.46;99601.78;2115209;83;21114;-66
2021/07/01 09:35:39;;;;;;;1.50;1.40;;;;;;;25.24;49.45;99605.25;2106222;82;21659;-72
2021/07/01 09:38:49;;;;;;;1.50;1.35;;;;;;;25.01;51.32;99601.22;2100644;83;21099;-68
2021/07/01 09:41:50;;;;;;;1.75;1.35;;;;;;;25.35;50.67;99593.27;2102888;83;21058;-73
2021/07/01 09:44:53;;;;;;;1.30;1.20;;;;;;;25.14;50.08;99591.67;2103915;83;21167;-69
2021/07/01 09:47:58;;;;;;;1.37;0.95;;;;;;;24.96;51.16;99591.72;2105603;83;21027;-68
2021/07/01 09:51:05;;;;;;;1.10;0.95;;;;;;;24.68;51.29;99605.32;2105143;83;21951;-70
2021/07/01 09:54:10;;;;;;;2.35;1.10;;;;;;;24.56;51.50;99595.56;2098998;83;21051;-66
2021/07/01 09:57:19;;;;;;;1.60;1.50;;;;;;;24.34;51.43;99599.86;2100890;83;21039;-68
2021/07/01 10:00:24;;;;;;;1.80;1.30;;;;;;;24.09;51.33;99595.77;2098555;83;21525;-67
2021/07/01 10:03:26;;;;;;;1.50;1.40;;;;;;;23.80;51.16;99594.09;2099869;83;21009;-66
2021/07/01 10:06:29;;;;;;;1.50;1.40;;;;;;;23.59;51.37;99598.57;2090214;83;21027;-66
2021/07/01 10:09:31;;;;;;;2.17;1.15;;;;;;;23.50;51.83;99599.63;2097398;83;21122;-67
2021/07/01 10:12:34;;;;;;;1.98;0.90;;;;;;;24.04;51.39;99597.91;2093996;83;20977;-68
2021/07/01 10:15:37;;;;;;;1.25;1.00;;;;;;;24.75;50.89;99596.34;2100264;83;21016;-66
2021/07/01 10:18:43;;;;;;;2.87;1.10;;;;;;;25.34;49.70;99593.02;2097238;83;21093;-66
2021/07/01 10:21:45;;;;;;;1.40;1.30;;;;;;;25.89;48.78;99594.41;2093240;83;21086;-70
2021/07/01 10:24:58;;;;;;;3.35;1.02;;;;;;;26.00;48.48;99595.97;2097419;83;21098;-67
2021/07/01 10:28:16;;;;;;;1.30;1.20;;;;;;;25.59;47.39;99600.22;2099329;83;21126;-66
2021/07/01 10:31:15;;;;;;;2.83;1.47;;;;;;;24.92;48.21;99606.39;2095307;83;21007;-67
2021/07/01 10:34:19;;;;;;;1.65;1.30;;;;;;;24.63;48.33;99601.25;2095652;82;21862;-67
2021/07/01 10:37:23;;;;;;;5.78;1.65;;;;;;;24.44;48.99;99607.75;2111527;82;21008;-69
2021/07/01 10:40:25;;;;;;;4.12;1.00;;;;;;;24.85;49.86;99604.48;2112201;82;21033;-67
2021/07/01 10:43:45;;;;;;;1.15;0.85;;;;;;;25.52;48.23;99597.56;2115134;82;21036;-70
2021/07/01 10:46:50;;;;;;;1.17;1.15;;;;;;;25.87;47.59;99593.31;2112847;82;21008;-68
2021/07/01 10:49:53;;;;;;;4.10;1.20;;;;;;;25.79;47.02;99593.06;2112080;83;21418;-69
2021/07/01 10:52:55;;;;;;;2.02;1.10;;;;;;;25.78;46.93;99599.05;2116011;82;21016;-67
2021/07/01 10:56:02;;;;;;;3.22;1.17;;;;;;;26.11;46.41;99602.16;2117523;83;23150;-71
2021/07/01 10:59:03;;;;;;;1.15;1.05;;;;;;;26.14;46.11;99601.04;2112623;82;21114;-66
2021/07/01 11:02:08;;;;;;;2.85;1.15;;;;;;;25.78;45.78;99605.84;2113486;82;20999;-66
2021/07/01 11:05:11;;;;;;;1.12;1.07;;;;;;;25.39;46.13;99611.17;2114426;82;21053;-66
2021/07/01 11:08:34;;;;;;;1.40;1.30;;;;;;;25.18;45.94;99604.45;2114859;82;21598;-70
2021/07/01 11:11:39;;;;;;;1.50;1.37;;;;;;;24.97;46.17;99606.91;2112179;82;20984;-67
2021/07/01 11:14:48;;;;;;;3.85;1.45;;;;;;;24.72;46.77;99609.10;2113530;82;21569;-68
2021/07/01 11:17:49;;;;;;;1.70;1.50;;;;;;;24.41;47.04;99612.33;2115578;82;21063;-66
2021/07/01 11:21:09;;;;;;;1.30;1.30;;;;;;;24.10;47.69;99615.00;2116907;82;21274;-69
2021/07/01 11:24:26;;;;;;;1.82;1.27;;;;;;;23.76;48.16;99620.06;2114831;82;21481;-71
2021/07/01 11:27:31;;;;;;;3.90;1.60;;;;;;;23.47;48.45;99621.81;2112780;82;21079;-68
2021/07/01 11:30:33;;;;;;;1.62;1.50;;;;;;;23.18;49.09;99625.46;2089804;83;21066;-67
2021/07/01 11:33:34;;;;;;;5.28;1.42;;;;;;;23.13;49.72;99624.88;2111659;82;21104;-68
2021/07/01 11:36:38;;;;;;;2.75;1.32;;;;;;;23.23;50.12;99622.24;2116699;82;21139;-68
2021/07/01 11:39:41;;;;;;;5.20;1.70;;;;;;;23.35;50.35;99619.87;2109163;82;21063;-68
2021/07/01 11:42:45;;;;;;;3.30;1.40;;;;;;;23.50;50.35;99627.50;2116239;83;21494;-66
2021/07/01 11:45:52;;;;;;;4.35;1.37;;;;;;;23.69;50.55;99623.80;2112686;82;21086;-67
2021/07/01 11:48:56;;;;;;;3.33;1.50;;;;;;;23.76;50.25;99612.73;2112867;82;21040;-66
2021/07/01 11:51:58;;;;;;;1.92;1.60;;;;;;;23.71;50.24;99616.27;2115170;82;21586;-69
2021/07/01 11:55:04;;;;;;;1.65;1.50;;;;;;;23.61;50.04;99617.54;2096138;83;21963;-67
2021/07/01 11:58:05;;;;;;;2.67;1.60;;;;;;;23.49;50.05;99621.83;2116225;82;21060;-69
2021/07/01 12:01:07;;;;;;;2.85;1.55;;;;;;;23.41;50.15;99621.52;2112077;82;21348;-67
2021/07/01 12:04:11;;;;;;;1.30;1.20;;;;;;;23.45;50.23;99626.66;2111816;82;21088;-68
2021/07/01 12:07:25;;;;;;;2.40;1.60;;;;;;;23.32;50.03;99628.52;2113761;82;21065;-68
2021/07/01 12:10:27;;;;;;;1.80;1.30;;;;;;;23.23;50.27;99637.13;2110596;82;21076;-68
2021/07/01 12:13:39;;;;;;;1.77;1.10;;;;;;;23.14;50.47;99627.85;2089773;82;21101;-68
2021/07/01 12:16:41;;;;;;;1.47;1.25;;;;;;;23.03;50.32;99624.29;2111908;82;21028;-69
2021/07/01 12:19:59;;;;;;;1.77;1.30;;;;;;;23.07;50.26;99634.59;2113898;82;21450;-67
2021/07/01 12:23:14;;;;;;;1.45;1.35;;;;;;;23.11;50.66;99632.98;2119055;82;21318;-67
2021/07/01 12:26:39;;;;;;;4.12;1.85;;;;;;;23.18;50.77;99645.21;2114161;82;21098;-67
2021/07/01 12:29:48;;;;;;;3.62;1.22;;;;;;;23.36;50.83;99643.14;2116324;83;21135;-67
2021/07/01 12:32:50;;;;;;;1.70;1.60;;;;;;;23.48;50.89;99639.67;2112960;83;21004;-71
2021/07/01 12:35:57;;;;;;;3.30;1.80;;;;;;;23.58;50.95;99642.44;2119527;82;21039;-70
2021/07/01 12:39:13;;;;;;;2.15;1.65;;;;;;;23.66;50.93;99647.36;2113418;82;21523;-68
2021/07/01 12:42:21;;;;;;;1.65;1.52;;;;;;;23.66;51.12;99644.64;2118913;82;21027;-69
2021/07/01 12:45:32;;;;;;;3.60;1.62;;;;;;;23.57;50.89;99643.53;2120297;82;21025;-70
2021/07/01 12:48:40;;;;;;;2.67;1.57;;;;;;;23.58;51.00;99641.09;2117412;82;21213;-69
2021/07/01 12:51:46;;;;;;;5.22;1.60;;;;;;;23.58;50.77;99648.41;2118103;82;21586;-68
2021/07/01 12:54:53;;;;;;;3.17;1.40;;;;;;;23.53;50.81;99647.83;2120936;82;21059;-73
2021/07/01 12:57:56;;;;;;;1.62;1.52;;;;;;;23.44;50.37;99646.70;2120089;82;21464;-68
2021/07/01 13:00:57;;;;;;;1.62;1.35;;;;;;;23.39;50.68;99648.03;2121098;82;22718;-67
2021/07/01 13:03:59;;;;;;;9.10;1.75;;;;;;;23.43;51.13;99649.96;2122804;82;21358;-72
2021/07/01 13:07:03;;;;;;;3.67;1.20;;;;;;;23.42;50.98;99651.56;2121550;82;21096;-67
2021/07/01 13:10:09;;;;;;;1.20;1.10;;;;;;;23.50;50.94;99660.54;2121110;82;21600;-67
2021/07/01 13:13:11;;;;;;;1.30;1.20;;;;;;;23.52;50.36;99659.75;2118295;82;21129;-68
2021/07/01 13:16:12;;;;;;;3.72;1.10;;;;;;;23.46;50.22;99653.49;2115543;82;21498;-68
2021/07/01 13:19:22;;;;;;;2.65;1.55;;;;;;;23.39;50.08;99648.03;2120445;82;22226;-72
2021/07/01 13:22:27;;;;;;;4.40;1.47;;;;;;;23.37;50.44;99648.30;2117315;82;21004;-67
2021/07/01 13:25:29;;;;;;;2.42;1.40;;;;;;;23.40;50.00;99647.78;2121199;82;21491;-67
2021/07/01 13:28:31;;;;;;;5.97;1.87;;;;;;;23.40;49.94;99653.73;2114789;82;21057;-75
2021/07/01 13:31:33;;;;;;;1.72;1.47;;;;;;;23.31;49.70;99652.58;2124470;82;21084;-71
2021/07/01 13:34:35;;;;;;;3.02;1.67;;;;;;;23.17;49.86;99667.95;2120041;82;21541;-68
2021/07/01 13:37:41;;;;;;;4.00;1.82;;;;;;;23.08;49.87;99660.56;2118659;82;21340;-73
2021/07/01 13:40:44;;;;;;;4.62;1.77;;;;;;;23.08;50.54;99660.56;2114571;82;21023;-69
2021/07/01 13:43:45;;;;;;;2.58;1.65;;;;;;;23.00;50.58;99657.28;2114491;82;21121;-69
2021/07/01 13:46:49;;;;;;;1.65;1.40;;;;;;;22.94;50.49;99660.16;2113109;82;21395;-73
2021/07/01 13:49:55;;;;;;;1.85;1.62;;;;;;;22.91;50.66;99657.97;2112162;82;21134;-69
2021/07/01 13:53:03;;;;;;;3.20;2.05;;;;;;;22.95;50.72;99661.30;2099064;83;21037;-73
2021/07/01 13:56:09;;;;;;;2.77;1.52;;;;;;;23.02;50.83;99663.22;2096926;83;21004;-68
2021/07/01 13:59:11;;;;;;;3.15;1.60;;;;;;;23.08;50.62;99664.62;2097432;83;21724;-69
2021/07/01 14:02:20;;;;;;;4.67;1.80;;;;;;;23.11;50.89;99662.20;2103331;83;21036;-69
2021/07/01 14:05:38;;;;;;;4.87;1.52;;;;;;;23.14;50.87;99656.27;2100571;83;21073;-69
2021/07/01 14:08:44;;;;;;;1.60;1.50;;;;;;;23.23;51.50;99657.42;2099693;83;21024;-69
2021/07/01 14:11:47;;;;;;;1.60;1.50;;;;;;;23.27;51.49;99658.52;2102819;83;21051;-68
2021/07/01 14:14:49;;;;;;;4.20;1.45;;;;;;;23.29;51.25;99652.86;2099470;83;21496;-70
2021/07/01 14:17:53;;;;;;;1.77;1.30;;;;;;;23.36;51.28;99654.78;2101130;83;21017;-68
2021/07/01 14:20:59;;;;;;;3.00;1.57;;;;;;;23.55;51.21;99659.22;2098125;83;21014;-68
2021/07/01 14:24:15;;;;;;;3.65;1.60;;;;;;;23.71;50.73;99652.02;2045891;85;21063;-68
2021/07/01 14:27:17;;;;;;;1.50;1.40;;;;;;;23.86;50.45;99643.13;2050706;85;21046;-69
2021/07/01 14:30:40;;;;;;;6.75;1.92;;;;;;;23.91;49.70;99648.56;2047454;85;21051;-69
2021/07/01 14:33:55;;;;;;;4.95;1.85;;;;;;;23.88;50.51;99648.55;2044334;85;21106;-69